Time;durP1;ratioP1;P1;durP2;ratioP2;P2;SDS_P1;SDS_P2;PMS_P1;PMS_P2;Temp;Humidity;BMP_temperature;BMP_pressure;BME280_temperature;BME280_humidity;BME280_pressure;Samples;Min_cycle;Max_cycle;Signal;HPM_P1;HPM_P2
2022/08/11 00:01:10;;;;;;;5.10;3.80;;;;;;;21.36;48.69;102085.75;5090602;28;20497;-57
2022/08/11 00:03:42;;;;;;;6.97;3.80;;;;;;;21.27;49.11;102087.41;5090597;28;20047;-57
2022/08/11 00:06:09;;;;;;;5.28;3.60;;;;;;;21.25;49.56;102088.53;5104623;28;20026;-56
2022/08/11 00:08:40;;;;;;;6.68;3.80;;;;;;;21.20;49.61;102085.34;5090465;28;20411;-57
2022/08/11 00:11:08;;;;;;;6.53;4.22;;;;;;;21.21;49.58;102085.25;5089863;28;20043;-57
2022/08/11 00:13:36;;;;;;;7.50;3.83;;;;;;;21.17;49.81;102082.94;5106628;28;20031;-57
2022/08/11 00:16:09;;;;;;;4.50;4.10;;;;;;;21.29;49.23;102081.84;5104491;28;20019;-57
2022/08/11 00:18:40;;;;;;;5.85;4.10;;;;;;;21.18;49.78;102071.09;5111867;28;20100;-57
2022/08/11 00:21:06;;;;;;;6.30;4.10;;;;;;;21.16;49.86;102073.97;5106953;28;20394;-57
2022/08/11 00:23:38;;;;;;;9.05;4.32;;;;;;;21.10;49.76;102078.06;5111944;28;20030;-57
2022/08/11 00:26:06;;;;;;;4.15;3.75;;;;;;;21.21;49.02;102078.97;5106520;28;20031;-57
2022/08/11 00:28:34;;;;;;;7.07;3.85;;;;;;;21.07;49.35;102063.94;5109926;28;20038;-56
2022/08/11 00:31:06;;;;;;;5.85;3.67;;;;;;;21.15;50.11;102082.19;5100933;28;20024;-57
2022/08/11 00:33:35;;;;;;;9.05;3.80;;;;;;;21.12;49.03;102086.06;5094732;28;20482;-57
2022/08/11 00:36:02;;;;;;;7.00;4.30;;;;;;;20.99;50.08;102082.69;5093784;28;20028;-57
2022/08/11 00:38:34;;;;;;;6.88;4.03;;;;;;;21.04;49.89;102078.59;5109993;28;20114;-57
2022/08/11 00:41:30;;;;;;;6.05;3.90;;;;;;;21.08;49.53;102087.28;5103487;28;20024;-57
2022/08/11 00:44:29;;;;;;;9.32;4.20;;;;;;;21.07;49.50;102080.19;5110967;28;20110;-56
2022/08/11 00:47:07;;;;;;;6.07;4.30;;;;;;;21.05;49.86;102085.72;5090907;28;20039;-56
2022/08/11 00:49:51;;;;;;;6.20;3.92;;;;;;;21.01;50.20;102078.88;5104683;28;20545;-57
2022/08/11 00:52:29;;;;;;;6.45;3.78;;;;;;;20.85;50.25;102079.38;5096275;28;20563;-57
2022/08/11 00:55:39;;;;;;;10.13;4.43;;;;;;;20.85;50.49;102079.38;5088639;28;20524;-56
2022/08/11 00:58:38;;;;;;;6.82;3.63;;;;;;;20.85;50.67;102084.78;5075508;28;20032;-57
2022/08/11 01:01:15;;;;;;;7.82;4.13;;;;;;;20.93;50.19;102081.38;5100627;28;20027;-56
2022/08/11 01:04:29;;;;;;;6.25;4.05;;;;;;;20.97;49.64;102074.75;5107612;28;20103;-56
2022/08/11 01:06:57;;;;;;;6.55;3.97;;;;;;;20.90;50.36;102073.53;5081841;28;20126;-57
2022/08/11 01:09:38;;;;;;;5.07;4.50;;;;;;;20.85;50.33;102073.06;5109461;28;20031;-56
2022/08/11 01:12:40;;;;;;;5.57;3.90;;;;;;;20.80;50.26;102078.91;5094599;28;20490;-57
2022/08/11 01:15:06;;;;;;;6.32;4.07;;;;;;;20.63;50.96;102072.25;5074551;28;20036;-57
2022/08/11 01:17:52;;;;;;;5.43;3.55;;;;;;;20.72;50.29;102070.59;5094615;28;20182;-57
2022/08/11 01:20:21;;;;;;;9.50;4.60;;;;;;;20.64;51.00;102068.53;5103709;27;20039;-57
2022/08/11 01:23:05;;;;;;;6.27;4.03;;;;;;;20.66;50.61;102070.28;5115173;28;20031;-57
2022/08/11 01:25:43;;;;;;;7.38;4.43;;;;;;;20.52;51.49;102069.59;5105856;28;20379;-57
2022/08/11 01:28:49;;;;;;;8.25;4.15;;;;;;;20.51;51.10;102077.81;5105050;28;20027;-56
2022/08/11 01:31:27;;;;;;;8.52;4.50;;;;;;;20.41;52.00;102075.91;5098130;28;20091;-57
2022/08/11 01:34:14;;;;;;;6.57;4.25;;;;;;;20.49;51.11;102079.78;5101643;28;20024;-56
2022/08/11 01:37:16;;;;;;;7.72;4.55;;;;;;;20.39;51.38;102079.72;5082321;28;20019;-56
2022/08/11 01:40:03;;;;;;;6.35;4.15;;;;;;;20.28;51.91;102085.19;5085717;28;20111;-56
2022/08/11 01:46:04;;;;;;;9.15;4.60;;;;;;;20.20;52.00;102083.97;5094980;28;20076;-56
2022/08/11 01:49:10;;;;;;;5.85;4.28;;;;;;;20.18;51.98;102083.25;5092900;28;20044;-56
2022/08/11 01:52:02;;;;;;;7.75;4.68;;;;;;;20.19;51.68;102089.53;5093023;28;20106;-57
2022/08/11 01:54:36;;;;;;;6.15;4.35;;;;;;;20.11;52.34;102082.06;5112091;28;20028;-57
2022/08/11 01:57:27;;;;;;;12.88;4.40;;;;;;;20.15;51.85;102086.22;5115549;27;20023;-57
2022/08/11 02:00:07;;;;;;;6.20;4.38;;;;;;;20.11;52.07;102082.06;5075061;28;20040;-57
2022/08/11 02:02:47;;;;;;;5.97;4.65;;;;;;;20.03;52.21;102087.25;5094620;28;20100;-56
2022/08/11 02:05:48;;;;;;;9.65;4.65;;;;;;;19.99;52.50;102080.38;5110977;28;20024;-56
2022/08/11 02:08:39;;;;;;;6.10;4.43;;;;;;;20.02;52.07;102085.53;5094472;28;20169;-56
2022/08/11 02:11:30;;;;;;;9.15;4.70;;;;;;;20.00;52.17;102082.13;5092739;28;20114;-57
2022/08/11 02:14:21;;;;;;;5.45;4.65;;;;;;;20.01;52.02;102088.38;5082602;28;20030;-56
2022/08/11 02:17:08;;;;;;;10.35;5.15;;;;;;;19.89;52.76;102091.09;5112804;28;20031;-57
2022/08/11 02:26:06;;;;;;;9.13;5.20;;;;;;;19.83;52.54;102083.50;5110788;28;20156;-57
2022/08/11 02:28:48;;;;;;;8.07;5.35;;;;;;;19.68;53.36;102082.06;5110731;28;20374;-56
2022/08/11 02:34:14;;;;;;;10.63;4.95;;;;;;;19.67;53.35;102074.94;5106725;28;20047;-57
2022/08/11 02:36:54;;;;;;;8.68;5.60;;;;;;;19.60;53.21;102063.75;5106415;28;20470;-56
2022/08/11 02:39:24;;;;;;;9.63;5.10;;;;;;;19.56;53.76;102075.81;5112226;28;20041;-57
2022/08/11 02:42:23;;;;;;;7.03;4.70;;;;;;;19.45;54.05;102070.41;5111639;27;20024;-56
2022/08/11 02:45:06;;;;;;;5.82;4.70;;;;;;;19.49;53.83;102069.19;5098146;28;20505;-56
2022/08/11 02:51:18;;;;;;;6.28;5.28;;;;;;;19.39;53.97;102069.06;5108675;28;20030;-56
2022/08/11 02:54:02;;;;;;;7.60;4.90;;;;;;;19.38;53.72;102069.19;5092995;28;20543;-56
2022/08/11 02:56:55;;;;;;;8.75;5.10;;;;;;;19.18;53.85;102046.53;5111822;28;20107;-57
2022/08/11 02:59:49;;;;;;;5.53;4.95;;;;;;;19.28;53.91;102069.94;5112936;27;20028;-57
2022/08/11 03:02:45;;;;;;;8.05;5.00;;;;;;;19.36;53.68;102069.31;5108089;28;20024;-57
2022/08/11 03:05:15;;;;;;;7.85;4.63;;;;;;;19.29;54.29;102065.38;5087971;28;20165;-56
2022/08/11 03:08:18;;;;;;;8.27;4.78;;;;;;;19.26;54.09;102069.19;5103665;28;20035;-56
2022/08/11 03:17:20;;;;;;;7.35;4.72;;;;;;;19.20;54.34;102068.84;5071859;28;20078;-56
2022/08/11 03:19:58;;;;;;;9.30;4.97;;;;;;;19.10;54.66;102066.03;5072321;28;20116;-57
2022/08/11 03:22:43;;;;;;;5.75;4.65;;;;;;;19.14;54.66;102064.78;5105002;28;20048;-57
2022/08/11 03:25:21;;;;;;;7.75;5.10;;;;;;;18.99;55.53;102066.00;5076528;28;20026;-56
2022/08/11 03:27:59;;;;;;;8.23;4.93;;;;;;;18.92;55.24;102067.50;5096916;28;20063;-57
2022/08/11 03:30:42;;;;;;;7.13;4.90;;;;;;;19.02;55.10;102066.63;5105275;28;20051;-56
2022/08/11 03:36:09;;;;;;;8.27;5.05;;;;;;;18.89;55.22;102065.88;5099905;28;20116;-56
2022/08/11 03:38:59;;;;;;;12.75;5.20;;;;;;;18.91;55.25;102074.69;5105081;28;20035;-57
2022/08/11 03:42:08;;;;;;;9.68;4.90;;;;;;;18.98;54.76;102078.63;5097499;28;20508;-57
2022/08/11 03:45:15;;;;;;;7.00;5.22;;;;;;;18.92;55.09;102071.03;5072889;28;20473;-56
2022/08/11 03:48:09;;;;;;;7.97;5.00;;;;;;;18.81;55.46;102071.88;5084234;28;20058;-56
2022/08/11 03:50:58;;;;;;;5.82;5.10;;;;;;;18.88;55.45;102071.38;5103806;28;20032;-57
2022/08/11 03:53:33;;;;;;;6.20;5.60;;;;;;;18.78;55.70;102065.88;5092339;28;20032;-57
2022/08/11 03:56:26;;;;;;;11.52;5.25;;;;;;;18.82;55.41;102064.63;5111193;28;20148;-56
2022/08/11 03:59:03;;;;;;;8.43;5.57;;;;;;;18.80;55.67;102070.16;5078203;28;20462;-56
2022/08/11 04:01:52;;;;;;;7.20;6.30;;;;;;;18.77;55.63;102067.72;5106148;28;20023;-57
2022/08/11 04:04:23;;;;;;;9.90;5.72;;;;;;;18.76;55.84;102065.13;5099447;28;20024;-57
2022/08/11 04:06:56;;;;;;;9.23;5.82;;;;;;;18.72;55.66;102067.16;5090464;28;20058;-56
2022/08/11 04:09:59;;;;;;;7.10;5.68;;;;;;;18.72;55.80;102064.47;5103363;28;20036;-56
2022/08/11 04:13:09;;;;;;;9.77;5.88;;;;;;;18.69;55.82;102059.31;5094345;28;20028;-57
2022/08/11 04:18:43;;;;;;;8.75;6.80;;;;;;;18.56;56.69;102059.44;5093192;28;20115;-57
2022/08/11 04:21:39;;;;;;;8.35;6.18;;;;;;;18.64;56.11;102063.34;5101453;28;20490;-57
2022/08/11 04:24:39;;;;;;;8.30;6.35;;;;;;;18.59;56.01;102058.34;5105580;28;20031;-57
2022/08/11 04:27:38;;;;;;;8.65;6.40;;;;;;;18.62;56.00;102058.09;5087765;28;20108;-56
2022/08/11 04:30:16;;;;;;;7.57;6.40;;;;;;;18.56;56.19;102056.75;5071571;28;20447;-57
2022/08/11 04:33:19;;;;;;;9.05;6.40;;;;;;;18.52;56.28;102060.63;5091851;28;20074;-57
2022/08/11 04:36:08;;;;;;;9.15;6.75;;;;;;;18.64;55.95;102066.06;5086139;28;20031;-56
2022/08/11 04:39:24;;;;;;;10.43;6.50;;;;;;;18.61;55.98;102061.75;5063262;28;20043;-56
2022/08/11 04:45:12;;;;;;;10.25;6.40;;;;;;;18.48;56.85;102061.00;5091218;28;20050;-57
2022/08/11 05:03:35;;;;;;;9.20;6.70;;;;;;;18.28;57.76;102059.84;5110144;28;20046;-56
2022/08/11 05:06:11;;;;;;;9.27;6.65;;;;;;;18.21;58.60;102072.06;5077016;28;20118;-56
2022/08/11 05:09:06;;;;;;;7.85;7.03;;;;;;;18.36;57.93;102070.88;5088538;28;20105;-56
2022/08/11 05:12:04;;;;;;;10.50;6.43;;;;;;;18.35;57.77;102075.41;5089649;28;20475;-57
2022/08/11 05:34:52;;;;;;;11.18;6.45;;;;;;;18.81;57.25;102079.09;5089787;28;20047;-56
2022/08/11 05:37:33;;;;;;;8.93;6.57;;;;;;;18.83;56.89;102064.53;5091775;28;20089;-57
2022/08/11 05:56:54;;;;;;;11.23;6.45;;;;;;;19.44;56.09;102074.09;5111619;28;20035;-57
2022/08/11 05:59:22;;;;;;;8.68;6.32;;;;;;;19.56;55.57;102073.13;5113925;28;20392;-57
2022/08/11 06:01:49;;;;;;;9.17;6.33;;;;;;;19.70;55.02;102072.84;5113031;28;20027;-57
2022/08/11 06:04:22;;;;;;;11.52;6.32;;;;;;;19.68;55.00;102066.72;5109417;28;20023;-57
2022/08/11 06:06:53;;;;;;;8.85;5.78;;;;;;;19.81;54.43;102076.50;5099729;28;20052;-57
2022/08/11 06:09:35;;;;;;;9.43;6.00;;;;;;;19.87;54.92;102079.56;5107223;28;20028;-58
2022/08/11 06:12:15;;;;;;;9.63;5.65;;;;;;;19.89;55.37;102083.00;5112472;28;20023;-57
2022/08/11 06:14:44;;;;;;;7.70;5.80;;;;;;;20.02;54.24;102084.66;5109836;28;20118;-57
2022/08/11 06:17:11;;;;;;;9.25;5.65;;;;;;;20.10;54.05;102074.94;5112750;28;20076;-57
2022/08/11 06:19:41;;;;;;;5.78;5.18;;;;;;;20.18;54.36;102079.72;5112205;28;20054;-57
2022/08/11 06:22:10;;;;;;;11.85;5.97;;;;;;;20.27;54.12;102080.78;5088466;28;20106;-57
2022/08/11 06:24:40;;;;;;;12.88;5.55;;;;;;;20.42;53.26;102079.47;5092681;28;20034;-57
2022/08/11 06:27:07;;;;;;;9.10;5.65;;;;;;;20.41;53.34;102066.94;5093287;28;20032;-57
2022/08/11 06:29:40;;;;;;;10.98;5.57;;;;;;;20.58;53.40;102076.34;5091864;28;20024;-57
2022/08/11 06:32:10;;;;;;;7.45;5.10;;;;;;;20.69;53.18;102078.97;5093565;28;20085;-57
2022/08/11 06:35:10;;;;;;;9.93;5.22;;;;;;;20.78;53.01;102082.72;5113638;28;20370;-59
2022/08/11 06:37:47;;;;;;;8.55;4.78;;;;;;;20.90;52.40;102080.81;5102513;28;20688;-59
2022/08/11 06:40:34;;;;;;;10.43;5.00;;;;;;;20.96;52.04;102088.38;5079030;28;20036;-59
2022/08/11 06:43:08;;;;;;;12.98;5.38;;;;;;;20.99;52.70;102088.97;5081061;28;20021;-59
2022/08/11 06:45:47;;;;;;;12.13;5.00;;;;;;;21.10;51.72;102088.03;5112237;28;20034;-59
2022/08/11 06:48:21;;;;;;;6.15;4.70;;;;;;;21.20;51.81;102085.34;5072476;28;20045;-59
2022/08/11 06:53:45;;;;;;;9.53;4.73;;;;;;;21.28;53.81;102091.81;5080747;28;20143;-59
2022/08/11 07:02:04;;;;;;;10.00;4.85;;;;;;;21.54;51.19;102089.50;5093369;28;20108;-59
2022/08/11 07:04:50;;;;;;;10.80;4.85;;;;;;;21.64;50.78;102092.22;5086150;28;20119;-59
2022/08/11 07:16:07;;;;;;;9.20;4.82;;;;;;;22.01;49.70;102094.31;5088994;28;20431;-58
2022/08/11 07:30:01;;;;;;;12.60;4.70;;;;;;;22.52;48.09;102093.19;5092853;28;20108;-58
2022/08/11 07:32:35;;;;;;;7.07;3.97;;;;;;;22.61;47.17;102084.19;5087115;28;20104;-59
2022/08/11 07:35:29;;;;;;;15.05;5.45;;;;;;;22.75;46.88;102082.03;5090436;28;20063;-58
2022/08/11 07:38:00;;;;;;;5.72;4.28;;;;;;;22.79;46.85;102083.44;5079331;28;20094;-59
2022/08/11 07:40:26;;;;;;;9.30;4.47;;;;;;;22.86;45.81;102088.13;5085664;28;20023;-59
2022/08/11 07:42:54;;;;;;;8.10;4.80;;;;;;;22.98;44.77;102080.72;5092406;28;20393;-59
2022/08/11 07:53:37;;;;;;;8.30;4.38;;;;;;;23.26;44.10;102065.28;5091952;28;20047;-58
2022/08/11 07:56:09;;;;;;;12.07;4.18;;;;;;;23.50;44.34;102086.50;5090162;28;20019;-59
2022/08/11 08:17:57;;;;;;;8.65;4.68;;;;;;;24.08;43.54;102092.56;5109796;28;20386;-58
2022/08/11 08:20:29;;;;;;;8.35;4.15;;;;;;;24.16;43.55;102087.22;5091577;28;20103;-58
2022/08/11 08:23:00;;;;;;;12.30;4.25;;;;;;;24.17;43.68;102092.47;5104046;28;20031;-61
2022/08/11 08:25:38;;;;;;;9.05;4.57;;;;;;;24.31;43.39;102087.53;5095742;28;20103;-60
2022/08/11 08:28:08;;;;;;;7.53;4.15;;;;;;;24.30;42.92;102085.81;5090771;28;20137;-60
2022/08/11 08:30:47;;;;;;;7.50;4.60;;;;;;;24.50;43.44;102086.50;5091411;28;20095;-61
2022/08/11 08:33:23;;;;;;;10.32;4.78;;;;;;;24.57;42.49;102084.88;5090381;28;20085;-60
2022/08/11 08:36:10;;;;;;;11.63;4.32;;;;;;;24.71;42.29;102087.03;5105286;28;20102;-62
2022/08/11 08:38:50;;;;;;;7.30;4.45;;;;;;;24.68;41.92;102088.19;5111563;28;20642;-61
2022/08/11 08:41:37;;;;;;;8.88;4.47;;;;;;;24.83;41.95;102091.19;5111332;28;20027;-58
2022/08/11 08:44:07;;;;;;;7.88;4.28;;;;;;;24.85;42.74;102086.41;5110894;28;20054;-58
2022/08/11 08:46:42;;;;;;;11.20;4.03;;;;;;;24.98;41.69;102085.16;5108385;28;20132;-57
2022/08/11 08:49:14;;;;;;;7.65;4.30;;;;;;;25.06;41.68;102087.91;5110049;28;20076;-57
2022/08/11 08:51:42;;;;;;;10.48;4.13;;;;;;;25.20;41.28;102083.75;5091137;28;20447;-58
2022/08/11 08:54:15;;;;;;;5.77;3.73;;;;;;;25.24;40.63;102080.56;5091416;28;20024;-58
2022/08/11 08:56:43;;;;;;;10.10;4.70;;;;;;;25.34;40.33;102080.44;5090099;28;20419;-58
2022/08/11 08:59:11;;;;;;;14.50;4.47;;;;;;;25.45;40.21;102076.56;5090405;28;20443;-58
2022/08/11 09:01:58;;;;;;;8.43;4.13;;;;;;;25.58;40.56;102085.13;5090934;28;20020;-59
2022/08/11 09:04:25;;;;;;;8.25;4.07;;;;;;;25.50;39.98;102077.78;5090935;28;20051;-59
2022/08/11 09:06:55;;;;;;;11.93;4.22;;;;;;;25.67;40.43;102077.81;5090989;28;20052;-61
2022/08/11 09:09:22;;;;;;;8.73;3.40;;;;;;;25.77;39.85;102078.53;5123572;28;20378;-59
2022/08/11 09:11:53;;;;;;;9.40;3.97;;;;;;;25.77;39.92;102084.00;5092051;28;20089;-59
2022/08/11 09:14:23;;;;;;;9.70;4.15;;;;;;;26.00;38.61;102074.19;5090125;28;20052;-59
2022/08/11 09:16:51;;;;;;;11.88;4.20;;;;;;;26.21;38.73;102079.16;5090700;28;20437;-60
2022/08/11 09:19:19;;;;;;;9.48;3.80;;;;;;;26.22;37.82;102078.13;5090839;28;20111;-60
2022/08/11 09:26:58;;;;;;;12.30;4.00;;;;;;;26.31;38.13;102080.84;5090971;28;20024;-61
2022/08/11 09:27:26;;;;;;;8.52;4.18;;;;;;;26.48;36.96;102066.19;5118510;28;20047;-56
2022/08/11 09:29:52;;;;;;;5.47;3.58;;;;;;;26.61;36.69;102066.53;5091521;28;20474;-55
2022/08/11 09:32:21;;;;;;;7.95;3.72;;;;;;;26.69;35.99;102066.53;5103666;28;20055;-56
2022/08/11 09:34:50;;;;;;;6.93;3.47;;;;;;;26.73;34.84;102064.28;5114773;28;20122;-55
2022/08/11 09:45:30;;;;;;;8.32;3.53;;;;;;;27.14;34.24;102061.44;5114111;28;20046;-56
2022/08/11 09:47:57;;;;;;;6.32;3.20;;;;;;;27.26;34.05;102054.59;5114465;28;20039;-56
2022/08/11 09:50:24;;;;;;;5.07;3.28;;;;;;;27.35;33.85;102047.22;5114843;28;20026;-56
2022/08/11 09:52:50;;;;;;;5.72;3.38;;;;;;;27.47;34.21;102056.72;5111020;28;20073;-56
2022/08/11 09:55:16;;;;;;;9.20;3.05;;;;;;;27.59;34.68;102054.44;5114239;27;20439;-57
2022/08/11 10:00:36;;;;;;;;;;;;;;;27.66;35.32;102044.50;5102242;28;20435;-59
2022/08/11 10:03:07;;;;;;;6.45;3.20;;;;;;;27.86;34.43;102042.19;5094362;28;19912;-58
2022/08/11 10:08:19;;;;;;;8.98;3.25;;;;;;;27.93;32.73;102020.41;5093517;28;20047;-58
2022/08/11 10:10:46;;;;;;;5.73;3.07;;;;;;;27.96;33.20;102041.94;5093414;28;20027;-58
2022/08/11 10:13:27;;;;;;;5.75;3.08;;;;;;;28.05;33.68;102035.34;5089844;28;20712;-58
2022/08/11 10:15:59;;;;;;;8.50;3.50;;;;;;;28.08;32.73;102032.25;5093138;28;20028;-59
2022/08/11 10:18:48;;;;;;;9.07;3.35;;;;;;;28.24;32.73;102032.13;5094015;28;20046;-57
2022/08/11 10:21:23;;;;;;;9.52;3.13;;;;;;;28.31;32.58;102027.59;5093197;28;20024;-58
2022/08/11 10:26:53;;;;;;;5.35;3.00;;;;;;;28.53;32.58;102036.84;5094415;28;20098;-58
2022/08/11 10:34:55;;;;;;;8.75;3.10;;;;;;;28.47;32.32;102004.75;5101701;28;20058;-58
2022/08/11 10:37:23;;;;;;;8.13;3.38;;;;;;;28.65;32.75;102030.88;5125814;27;20020;-58
2022/08/11 10:39:50;;;;;;;7.38;3.40;;;;;;;28.74;32.89;102030.63;5090867;28;20376;-59
2022/08/11 10:47:33;;;;;;;5.00;2.95;;;;;;;28.73;30.86;102026.19;5099973;28;20061;-57
2022/08/11 10:47:50;;;;;;;;;;;;;;;28.88;30.85;102025.34;5092702;28;20137;-57
2022/08/11 10:58:46;;;;;;;8.13;3.17;;;;;;;29.16;31.38;102012.69;5090044;28;20070;-56
2022/08/11 11:01:13;;;;;;;9.35;3.25;;;;;;;29.33;30.74;102009.75;5078753;28;20550;-56
2022/08/11 11:03:40;;;;;;;11.25;3.15;;;;;;;29.23;30.49;102011.91;5090927;28;20016;-55
2022/08/11 11:06:44;;;;;;;77.25;7.80;;;;;;;29.26;31.07;102009.63;5089099;28;20035;-58
2022/08/11 11:09:21;;;;;;;31.58;5.93;;;;;;;29.39;30.58;102006.22;5085852;28;20044;-56
2022/08/11 11:20:22;;;;;;;8.70;2.90;;;;;;;29.57;27.15;102001.16;5092177;28;20042;-57
2022/08/11 11:22:52;;;;;;;6.47;2.60;;;;;;;29.48;27.42;101996.84;5086737;28;20032;-57
2022/08/11 11:25:34;;;;;;;5.10;2.90;;;;;;;29.69;28.66;101997.94;5102362;28;20019;-61
2022/08/11 11:28:41;;;;;;;10.10;2.90;;;;;;;29.82;27.44;101989.81;5089610;28;20055;-60
2022/08/11 11:31:12;;;;;;;4.10;2.50;;;;;;;29.93;26.04;101993.94;5088992;27;20040;-58
2022/08/11 11:33:58;;;;;;;8.45;2.80;;;;;;;29.77;26.20;101987.69;5093106;28;20028;-59
2022/08/11 11:36:36;;;;;;;10.60;4.25;;;;;;;29.92;27.63;101986.78;5090461;28;20030;-60
2022/08/11 11:39:02;;;;;;;7.07;2.67;;;;;;;29.83;26.40;101988.78;5081272;28;20047;-59
2022/08/11 11:41:28;;;;;;;5.03;2.65;;;;;;;30.00;26.94;101979.25;5091703;28;20093;-60
2022/08/11 11:43:58;;;;;;;7.90;2.80;;;;;;;30.25;26.37;101982.41;5092836;28;20032;-58
2022/08/11 11:46:26;;;;;;;6.82;3.17;;;;;;;30.27;26.63;101983.09;5093202;28;20032;-60
2022/08/11 11:48:53;;;;;;;4.88;2.90;;;;;;;30.24;26.45;101988.13;5089494;28;20368;-59
2022/08/11 11:51:22;;;;;;;8.70;2.55;;;;;;;30.17;26.24;101966.06;5092768;28;20016;-59
2022/08/11 11:53:50;;;;;;;5.18;2.80;;;;;;;30.22;26.44;101960.88;5089913;28;20084;-61
2022/08/11 11:56:16;;;;;;;9.73;2.97;;;;;;;30.32;27.02;101972.31;5101742;28;20023;-60
2022/08/11 12:01:27;;;;;;;4.70;2.70;;;;;;;30.41;26.36;101966.69;5107860;28;20120;-59
2022/08/11 12:03:54;;;;;;;7.40;2.70;;;;;;;30.38;25.94;101965.19;5112763;28;20359;-60
2022/08/11 12:06:22;;;;;;;4.75;3.13;;;;;;;30.39;26.79;101963.31;5110920;28;20042;-60
2022/08/11 12:08:52;;;;;;;4.00;3.03;;;;;;;30.43;26.00;101953.63;5108469;28;20436;-59
2022/08/11 12:14:06;;;;;;;7.10;3.28;;;;;;;30.52;26.12;101947.75;5101182;28;20161;-59
2022/08/11 12:16:35;;;;;;;5.38;2.65;;;;;;;30.62;26.45;101943.78;5096390;28;20085;-61
2022/08/11 12:19:01;;;;;;;5.40;2.78;;;;;;;30.71;26.10;101954.44;5090032;28;20319;-60
2022/08/11 12:21:28;;;;;;;8.23;3.08;;;;;;;30.66;25.66;101956.94;5085805;28;20036;-60
2022/08/11 12:29:15;;;;;;;9.73;2.80;;;;;;;30.78;25.83;101943.47;5095227;28;20032;-59
2022/08/11 12:31:43;;;;;;;8.68;3.10;;;;;;;30.75;25.36;101941.97;5095049;28;20023;-58
2022/08/11 12:34:13;;;;;;;8.25;2.90;;;;;;;30.66;25.18;101945.09;5110495;28;20023;-60
2022/08/11 12:36:50;;;;;;;5.07;2.75;;;;;;;30.77;25.21;101933.53;5093374;28;20467;-60
2022/08/11 12:45:26;;;;;;;9.50;3.03;;;;;;;30.67;25.04;101931.16;5107917;28;20462;-59
2022/08/11 12:51:57;;;;;;;5.70;2.75;;;;;;;30.78;25.22;101905.88;5071299;28;20071;-59
2022/08/11 12:53:11;;;;;;;8.30;2.97;;;;;;;30.90;25.30;101902.53;5105918;28;20093;-60
2022/08/11 12:58:26;;;;;;;6.45;2.67;;;;;;;31.14;25.16;101914.88;5102348;28;20043;-59
2022/08/11 13:06:23;;;;;;;6.20;2.95;;;;;;;31.02;24.07;101908.28;5106309;28;20551;-61
2022/08/11 13:08:52;;;;;;;5.53;2.75;;;;;;;31.06;24.09;101906.81;5095610;28;20023;-59
2022/08/11 13:14:05;;;;;;;2.72;2.35;;;;;;;31.00;23.83;101900.25;5095090;28;20035;-57
2022/08/11 13:17:20;;;;;;;3.72;2.30;;;;;;;31.03;23.15;101896.22;5095303;28;20067;-57
2022/08/11 13:19:22;;;;;;;5.25;2.63;;;;;;;31.03;23.60;101885.25;5095125;28;20032;-57
2022/08/11 13:21:49;;;;;;;5.72;2.58;;;;;;;31.14;23.04;101877.22;5095293;28;20020;-57
2022/08/11 13:24:17;;;;;;;8.07;2.70;;;;;;;31.11;23.39;101874.91;5095337;28;20023;-58
2022/08/11 13:26:47;;;;;;;5.87;2.90;;;;;;;31.14;23.32;101868.97;5096283;28;20023;-59
2022/08/11 13:29:13;;;;;;;3.55;2.20;;;;;;;31.17;23.38;101868.56;5114062;28;20031;-58
2022/08/11 13:31:41;;;;;;;6.47;2.83;;;;;;;31.27;23.34;101872.81;5114232;28;20087;-58
2022/08/11 13:34:08;;;;;;;5.22;2.80;;;;;;;31.21;23.46;101852.53;5114127;28;20069;-58
2022/08/11 13:36:34;;;;;;;6.38;3.00;;;;;;;31.32;23.53;101882.13;5104595;28;20083;-58
2022/08/11 13:39:04;;;;;;;3.90;3.03;;;;;;;31.29;23.49;101882.53;5095805;28;20012;-59
2022/08/11 13:41:40;;;;;;;2.83;2.50;;;;;;;31.39;22.99;101874.78;5087978;28;20023;-55
2022/08/11 13:44:07;;;;;;;5.85;2.60;;;;;;;31.36;22.66;101872.47;5093249;28;20043;-54
2022/08/11 13:46:34;;;;;;;5.33;2.40;;;;;;;31.42;22.69;101874.38;5094550;28;20064;-53
2022/08/11 13:49:00;;;;;;;3.97;2.50;;;;;;;31.44;22.10;101871.38;5090151;28;20130;-53
2022/08/11 13:51:31;;;;;;;4.95;2.30;;;;;;;31.44;22.53;101871.38;5091650;28;20031;-55
2022/08/11 13:54:05;;;;;;;6.22;2.10;;;;;;;31.37;22.26;101862.28;5086882;28;20402;-54
2022/08/11 13:56:32;;;;;;;6.20;2.53;;;;;;;31.40;22.42;101865.47;5099239;28;20080;-54
2022/08/11 13:59:02;;;;;;;6.40;2.60;;;;;;;31.36;22.69;101868.88;5105899;28;20544;-54
2022/08/11 14:01:33;;;;;;;4.32;2.30;;;;;;;31.50;22.92;101862.28;5096298;28;20036;-54
2022/08/11 14:04:27;;;;;;;7.57;2.38;;;;;;;31.41;22.45;101856.19;5103332;28;20031;-54
2022/08/11 14:06:54;;;;;;;5.13;2.63;;;;;;;31.19;22.06;101857.38;5063519;28;20078;-54
2022/08/11 14:09:26;;;;;;;10.57;2.80;;;;;;;31.14;22.63;101849.75;5090943;28;20031;-53
2022/08/11 14:14:43;;;;;;;5.70;2.45;;;;;;;31.12;23.08;101845.50;5094250;28;20039;-54
2022/08/11 14:17:10;;;;;;;4.50;2.67;;;;;;;31.09;23.16;101844.06;5099940;28;20023;-54
2022/08/11 14:19:39;;;;;;;7.28;2.50;;;;;;;31.13;22.50;101841.72;5099798;28;20104;-54
2022/08/11 14:22:06;;;;;;;5.75;2.50;;;;;;;31.21;22.67;101838.78;5074989;28;20078;-54
2022/08/11 14:24:37;;;;;;;5.43;2.72;;;;;;;31.36;23.26;101839.47;5073914;28;20032;-54
2022/08/11 14:27:08;;;;;;;11.05;3.47;;;;;;;31.35;23.51;101839.66;5074008;28;20087;-54
2022/08/11 14:29:37;;;;;;;5.72;2.95;;;;;;;31.43;23.59;101826.53;5073546;28;20029;-53
2022/08/11 14:32:05;;;;;;;6.22;2.60;;;;;;;31.51;22.77;101835.66;5085753;28;20040;-54
2022/08/11 14:34:33;;;;;;;5.63;2.65;;;;;;;31.43;23.42;101829.28;5091972;28;20027;-56
2022/08/11 14:37:11;;;;;;;3.70;2.50;;;;;;;31.47;22.78;101834.38;5092653;28;20034;-56
2022/08/11 14:39:42;;;;;;;5.18;2.72;;;;;;;31.48;22.72;101831.44;5093936;28;20024;-55
2022/08/11 14:47:53;;;;;;;4.25;2.80;;;;;;;31.45;23.68;101821.69;5105406;28;20071;-56
2022/08/11 14:50:24;;;;;;;6.18;2.92;;;;;;;31.35;23.23;101825.91;5114113;28;20027;-56
2022/08/11 14:52:53;;;;;;;8.65;3.10;;;;;;;31.41;23.08;101825.06;5093918;28;20040;-56
2022/08/11 14:58:09;;;;;;;3.70;3.00;;;;;;;31.43;23.36;101817.44;5073989;28;20659;-55
2022/08/11 15:00:35;;;;;;;6.80;2.80;;;;;;;31.29;23.58;101819.31;5088946;28;20035;-56
2022/08/11 15:03:10;;;;;;;5.63;2.80;;;;;;;31.35;24.40;101813.00;5092216;28;20023;-56
2022/08/11 15:05:40;;;;;;;5.32;2.78;;;;;;;31.28;24.11;101803.03;5102948;28;20035;-56
2022/08/11 15:08:06;;;;;;;6.35;3.17;;;;;;;31.28;24.28;101803.03;5107077;28;20386;-56
2022/08/11 15:10:32;;;;;;;7.60;2.63;;;;;;;31.23;24.59;101793.50;5091907;28;20024;-56
2022/08/11 15:13:01;;;;;;;3.67;2.55;;;;;;;31.31;24.61;101810.88;5091565;28;20031;-56
2022/08/11 15:18:15;;;;;;;6.28;2.97;;;;;;;31.21;23.76;101814.03;5093451;28;20030;-56
2022/08/11 15:26:15;;;;;;;7.40;3.00;;;;;;;31.19;23.06;101797.75;5081869;28;20097;-56
2022/08/11 15:37:30;;;;;;;9.85;3.38;;;;;;;31.14;23.39;101792.03;5103968;28;20031;-56
2022/08/11 15:45:49;;;;;;;7.22;3.13;;;;;;;31.04;23.33;101785.25;5091203;28;20078;-55
2022/08/11 15:48:28;;;;;;;3.83;2.70;;;;;;;31.11;22.92;101789.69;5092241;28;20044;-55
2022/08/11 15:50:57;;;;;;;8.15;2.60;;;;;;;31.10;22.66;101779.78;5091627;28;20032;-56
2022/08/11 15:53:42;;;;;;;3.50;2.50;;;;;;;31.04;23.43;101779.78;5092129;28;20026;-56
2022/08/11 15:56:10;;;;;;;5.22;2.63;;;;;;;31.02;22.88;101777.22;5098831;28;20085;-56
2022/08/11 16:04:19;;;;;;;6.53;2.55;;;;;;;30.94;23.12;101771.91;5112901;28;20034;-56
2022/08/11 16:07:02;;;;;;;5.72;2.28;;;;;;;30.84;22.42;101766.84;5105117;28;20024;-56
2022/08/11 16:09:32;;;;;;;3.28;2.10;;;;;;;30.78;22.53;101762.16;5089070;28;20114;-56
2022/08/11 16:12:03;;;;;;;7.63;2.60;;;;;;;30.72;23.00;101760.22;5111275;28;20026;-56
2022/08/11 16:17:19;;;;;;;4.32;2.50;;;;;;;30.75;23.08;101768.06;5083897;28;20146;-56
2022/08/11 16:19:50;;;;;;;6.68;2.80;;;;;;;30.76;22.60;101761.50;5092217;28;20032;-56
2022/08/11 16:22:26;;;;;;;3.58;2.33;;;;;;;30.77;23.31;101752.22;5091235;28;20054;-56
2022/08/11 16:24:55;;;;;;;9.25;2.63;;;;;;;30.64;22.59;101747.53;5092253;28;20020;-56